Time;durP1;ratioP1;P1;durP2;ratioP2;P2;SDS_P1;SDS_P2;PMS_P1;PMS_P2;Temp;Humidity;BMP_temperature;BMP_pressure;BME280_temperature;BME280_humidity;BME280_pressure;Samples;Min_cycle;Max_cycle;Signal;HPM_P1;HPM_P2
2022/12/10 00:01:32;;;;;;;15.63;9.03;;;-0.70;99.90;;;;;;5066298;28;20878;-86
2022/12/10 00:03:59;;;;;;;19.30;10.43;;;-0.70;99.90;;;;;;5071581;28;20423;-87
2022/12/10 00:06:30;;;;;;;25.13;10.83;;;-0.80;99.90;;;;;;5072730;28;20428;-92
2022/12/10 00:08:56;;;;;;;17.73;11.00;;;-0.70;99.90;;;;;;5072856;28;20970;-91
2022/12/10 00:11:23;;;;;;;17.40;8.37;;;-0.80;99.90;;;;;;5072787;28;20412;-86
2022/12/10 00:13:50;;;;;;;16.93;8.20;;;-0.80;99.90;;;;;;5072857;28;20812;-90
2022/12/10 00:16:17;;;;;;;21.07;9.70;;;-0.80;99.90;;;;;;5072768;28;20426;-91
2022/12/10 00:18:46;;;;;;;17.43;7.47;;;-0.70;99.90;;;;;;5073216;28;20414;-88
2022/12/10 00:21:17;;;;;;;21.40;8.73;;;-0.70;99.90;;;;;;5073049;28;20507;-92
2022/12/10 00:23:43;;;;;;;16.27;8.03;;;-0.80;99.90;;;;;;5072943;28;20419;-92
2022/12/10 00:26:24;;;;;;;18.83;8.50;;;-0.80;99.90;;;;;;5071626;28;20966;-92
2022/12/10 00:28:50;;;;;;;14.10;7.10;;;-0.80;99.90;;;;;;5069019;28;20238;-84
2022/12/10 00:31:22;;;;;;;16.53;8.63;;;-0.90;99.90;;;;;;5072359;28;20406;-85
2022/12/10 00:33:48;;;;;;;21.80;8.10;;;-0.80;99.90;;;;;;5068651;28;20497;-90
2022/12/10 00:36:20;;;;;;;17.50;7.73;;;-0.80;99.90;;;;;;5072710;28;20403;-91
2022/12/10 00:38:47;;;;;;;13.47;6.60;;;-0.80;99.90;;;;;;5068881;28;20419;-91
2022/12/10 00:41:16;;;;;;;18.70;8.37;;;-0.90;99.90;;;;;;5064605;28;20446;-89
2022/12/10 00:43:42;;;;;;;14.93;8.90;;;-0.90;99.90;;;;;;5072440;28;20419;-84
2022/12/10 00:46:11;;;;;;;13.20;7.93;;;-0.80;99.90;;;;;;5076573;28;20415;-89
2022/12/10 00:48:36;;;;;;;13.00;8.47;;;-0.80;99.90;;;;;;5072220;28;20962;-93
2022/12/10 00:51:08;;;;;;;16.13;8.97;;;-0.90;99.90;;;;;;5074710;28;20427;-94
2022/12/10 00:53:35;;;;;;;17.97;8.37;;;-0.80;99.90;;;;;;5070772;28;20230;-94
2022/12/10 00:56:03;;;;;;;18.43;8.70;;;-0.80;99.90;;;;;;5077166;28;20434;-92
2022/12/10 00:58:30;;;;;;;17.40;8.90;;;-0.90;99.90;;;;;;5073313;28;20549;-92
2022/12/10 01:01:31;;;;;;;11.40;6.60;;;-0.80;99.90;;;;;;5076353;28;20559;-92
2022/12/10 01:03:59;;;;;;;12.80;7.23;;;-0.80;99.90;;;;;;5007485;28;20916;-91
2022/12/10 01:06:27;;;;;;;13.80;8.10;;;-0.70;99.90;;;;;;5073512;28;20410;-93
2022/12/10 01:08:55;;;;;;;17.37;7.20;;;-0.70;99.90;;;;;;5081964;28;20931;-87
2022/12/10 01:11:24;;;;;;;11.20;5.80;;;-0.70;99.90;;;;;;5074405;28;20505;-91
2022/12/10 01:13:51;;;;;;;13.87;7.17;;;-0.70;99.90;;;;;;5079592;28;20463;-90
2022/12/10 01:16:19;;;;;;;11.23;6.00;;;-0.70;99.90;;;;;;5076495;28;20470;-87
2022/12/10 01:18:44;;;;;;;16.37;8.03;;;-0.70;99.90;;;;;;5082829;28;20419;-86
2022/12/10 01:21:13;;;;;;;16.67;7.33;;;-0.70;99.90;;;;;;5074028;28;20497;-89
2022/12/10 01:23:41;;;;;;;10.07;5.93;;;-0.70;99.90;;;;;;5077099;28;20423;-88
2022/12/10 01:26:10;;;;;;;14.13;6.93;;;-0.70;99.90;;;;;;5078952;28;20423;-89
2022/12/10 01:28:38;;;;;;;18.30;7.27;;;-0.70;99.90;;;;;;5083398;28;20469;-86
2022/12/10 01:31:10;;;;;;;14.43;8.17;;;-0.70;99.90;;;;;;5081804;28;20430;-86
2022/12/10 01:33:36;;;;;;;24.13;9.93;;;-0.70;99.90;;;;;;5088493;28;20453;-86
2022/12/10 01:36:04;;;;;;;16.90;6.90;;;-0.70;99.90;;;;;;5086915;28;20430;-87
2022/12/10 01:38:34;;;;;;;15.17;7.33;;;-0.70;99.90;;;;;;5088201;28;20442;-88
2022/12/10 01:41:00;;;;;;;8.67;6.10;;;-0.60;99.90;;;;;;5084562;28;20427;-88
2022/12/10 01:43:48;;;;;;;12.77;6.57;;;-0.60;99.90;;;;;;5075371;28;20415;-91
2022/12/10 01:46:14;;;;;;;12.20;7.23;;;-0.60;99.90;;;;;;5076846;28;20438;-94
2022/12/10 01:48:39;;;;;;;14.70;7.10;;;-0.60;99.90;;;;;;5080448;28;20524;-90
2022/12/10 01:51:05;;;;;;;17.40;7.00;;;-0.60;99.90;;;;;;5088758;28;20184;-86
2022/12/10 01:53:31;;;;;;;13.27;7.77;;;-0.60;99.90;;;;;;5076339;28;20179;-84
2022/12/10 01:55:57;;;;;;;15.13;6.60;;;-0.60;99.90;;;;;;5082783;28;20180;-94
2022/12/10 01:58:25;;;;;;;12.53;6.90;;;-0.50;99.90;;;;;;5098853;28;20413;-89
2022/12/10 02:01:12;;;;;;;12.27;5.60;;;-0.50;99.90;;;;;;5116709;28;20531;-86
2022/12/10 02:04:01;;;;;;;16.00;7.27;;;-0.50;99.90;;;;;;5099083;28;20540;-87
2022/12/10 02:06:40;;;;;;;12.47;6.70;;;-0.60;99.90;;;;;;5119087;28;20972;-88
2022/12/10 02:09:20;;;;;;;13.80;6.97;;;-0.60;99.90;;;;;;5099199;28;20489;-85
2022/12/10 02:12:20;;;;;;;11.83;6.63;;;-0.60;99.90;;;;;;5098649;28;20919;-87
2022/12/10 02:15:39;;;;;;;18.87;8.27;;;-0.60;99.90;;;;;;5116262;28;20453;-88
2022/12/10 02:18:23;;;;;;;19.73;8.67;;;-0.60;99.90;;;;;;5112724;28;20429;-86
2022/12/10 02:20:56;;;;;;;14.47;7.00;;;-0.60;99.90;;;;;;5098502;28;20426;-88
2022/12/10 02:23:30;;;;;;;14.63;6.80;;;-0.60;99.90;;;;;;5098739;28;20418;-89
2022/12/10 02:26:38;;;;;;;19.07;8.47;;;-0.60;99.90;;;;;;5116523;28;20418;-87
2022/12/10 02:29:19;;;;;;;16.97;8.20;;;-0.60;99.90;;;;;;5098577;28;20413;-90
2022/12/10 02:31:56;;;;;;;12.33;5.40;;;-0.60;99.90;;;;;;5098225;28;20972;-87
2022/12/10 02:34:24;;;;;;;7.17;4.07;;;-0.70;99.90;;;;;;5116642;28;20445;-89
2022/12/10 02:36:54;;;;;;;8.37;4.97;;;-0.60;99.90;;;;;;5116760;28;20418;-90
2022/12/10 02:39:43;;;;;;;14.37;6.40;;;-0.50;99.90;;;;;;5116391;28;20400;-91
2022/12/10 02:42:12;;;;;;;14.37;6.23;;;-0.50;99.90;;;;;;5116667;28;20490;-87
2022/12/10 02:44:42;;;;;;;12.23;6.00;;;-0.50;99.90;;;;;;5098149;28;20418;-88
2022/12/10 02:47:08;;;;;;;15.30;7.20;;;-0.50;99.90;;;;;;5116431;28;20409;-91
2022/12/10 02:49:36;;;;;;;18.37;7.57;;;-0.60;99.90;;;;;;5098323;28;20408;-88
2022/12/10 02:52:28;;;;;;;14.73;9.17;;;-0.60;99.90;;;;;;5098429;28;20438;-90
2022/12/10 02:54:53;;;;;;;9.83;6.37;;;-0.60;99.90;;;;;;5111472;28;20474;-88
2022/12/10 02:57:40;;;;;;;13.80;7.37;;;-0.50;99.90;;;;;;5116651;28;20933;-93
2022/12/10 03:00:08;;;;;;;11.50;5.67;;;-0.50;99.90;;;;;;5116495;28;20171;-93
2022/12/10 03:02:50;;;;;;;12.40;5.20;;;-0.50;99.90;;;;;;5116816;28;20979;-92
2022/12/10 03:05:24;;;;;;;9.03;5.53;;;-0.50;99.90;;;;;;5098909;28;20418;-93
2022/12/10 03:08:03;;;;;;;8.30;5.73;;;-0.50;99.90;;;;;;5098853;28;20412;-94
2022/12/10 03:10:40;;;;;;;15.47;7.40;;;-0.50;99.90;;;;;;5098430;28;20825;-94
2022/12/10 03:13:12;;;;;;;11.00;6.87;;;-0.50;99.90;;;;;;5098748;28;21042;-94
2022/12/10 03:15:41;;;;;;;10.77;6.37;;;-0.40;99.90;;;;;;5116180;28;20476;-93
2022/12/10 03:18:10;;;;;;;12.47;7.23;;;-0.40;99.90;;;;;;5116658;28;20438;-94
2022/12/10 03:20:47;;;;;;;10.80;6.03;;;-0.40;99.90;;;;;;5116142;28;20461;-93
2022/12/10 03:23:16;;;;;;;7.13;5.63;;;-0.50;99.90;;;;;;5098409;28;20410;-93
2022/12/10 03:25:43;;;;;;;10.10;5.67;;;-0.50;99.90;;;;;;5116804;28;20397;-93
2022/12/10 03:28:12;;;;;;;8.90;4.67;;;-0.60;99.90;;;;;;5097272;28;20414;-93
2022/12/10 03:30:40;;;;;;;10.60;5.77;;;-0.50;99.90;;;;;;5098398;28;20410;-95
2022/12/10 03:33:06;;;;;;;15.47;6.90;;;-0.50;99.90;;;;;;5117255;28;20411;-94
2022/12/10 03:35:33;;;;;;;10.50;5.73;;;-0.40;99.90;;;;;;5116960;28;20468;-94
2022/12/10 03:37:58;;;;;;;8.60;6.27;;;-0.50;99.90;;;;;;5097646;28;20414;-90
2022/12/10 03:40:25;;;;;;;9.17;5.83;;;-0.50;99.90;;;;;;5116049;28;20423;-89
2022/12/10 03:42:50;;;;;;;12.03;5.30;;;-0.40;99.90;;;;;;5117360;28;20176;-90
2022/12/10 03:45:16;;;;;;;15.50;6.67;;;-0.40;99.90;;;;;;5099652;28;20444;-94
2022/12/10 03:47:45;;;;;;;11.07;6.13;;;-0.40;99.90;;;;;;5117610;28;20171;-94
2022/12/10 03:50:11;;;;;;;8.80;5.90;;;-0.30;99.90;;;;;;5117234;28;20169;-94
2022/12/10 03:52:36;;;;;;;12.63;6.93;;;-0.30;99.90;;;;;;5118575;28;20552;-92
2022/12/10 03:55:03;;;;;;;12.87;6.30;;;-0.30;99.90;;;;;;5101450;28;20931;-94
2022/12/10 03:57:28;;;;;;;12.80;7.10;;;-0.30;99.90;;;;;;5115585;28;20593;-94
2022/12/10 03:59:57;;;;;;;7.93;5.67;;;-0.40;99.90;;;;;;5115578;28;20418;-94
2022/12/10 04:02:22;;;;;;;6.77;5.20;;;-0.30;99.90;;;;;;5116286;28;20215;-94
2022/12/10 04:04:48;;;;;;;10.47;6.03;;;-0.30;99.90;;;;;;5095267;28;20524;-91
2022/12/10 04:07:13;;;;;;;8.67;3.97;;;-0.20;99.90;;;;;;5099103;28;20172;-93
2022/12/10 04:09:41;;;;;;;9.37;5.47;;;-0.30;99.90;;;;;;5077242;28;20651;-91
2022/12/10 04:12:07;;;;;;;10.37;5.80;;;-0.30;99.90;;;;;;5095369;28;20188;-93
2022/12/10 04:17:19;;;;;;;4.60;3.63;;;-0.30;99.90;;;;;;5095227;28;20488;-89
2022/12/10 04:19:45;;;;;;;8.70;5.80;;;-0.40;99.90;;;;;;5076519;28;20478;-93
2022/12/10 04:27:39;;;;;;;8.10;3.77;;;-0.30;99.90;;;;;;5094591;28;20894;-88
2022/12/10 04:30:07;;;;;;;9.03;5.67;;;-0.30;99.90;;;;;;5094173;28;20410;-91
2022/12/10 04:32:33;;;;;;;8.23;5.20;;;-0.30;99.90;;;;;;5094615;28;20395;-91
2022/12/10 04:34:59;;;;;;;8.50;5.27;;;-0.40;99.90;;;;;;5076378;28;20484;-87
2022/12/10 04:37:25;;;;;;;8.17;5.60;;;-0.40;99.90;;;;;;5094224;28;20638;-89
2022/12/10 04:39:51;;;;;;;6.97;5.47;;;-0.40;99.90;;;;;;5076211;28;20181;-90
2022/12/10 04:42:17;;;;;;;9.60;4.93;;;-0.30;99.90;;;;;;5094269;28;20953;-90
2022/12/10 04:44:43;;;;;;;6.47;4.90;;;-0.30;99.90;;;;;;5094170;28;20641;-89
2022/12/10 04:47:18;;;;;;;8.37;5.27;;;-0.30;99.90;;;;;;5076425;28;20421;-91
2022/12/10 04:49:43;;;;;;;8.50;6.30;;;-0.30;99.90;;;;;;5094090;28;20590;-89
2022/12/10 04:52:14;;;;;;;8.30;5.00;;;-0.30;99.90;;;;;;5076264;28;20414;-89
2022/12/10 04:54:40;;;;;;;10.60;6.23;;;-0.30;99.90;;;;;;5094090;28;20292;-90
2022/12/10 04:57:06;;;;;;;7.80;4.20;;;-0.30;99.90;;;;;;5076271;28;20414;-90
2022/12/10 04:59:32;;;;;;;9.70;5.77;;;-0.40;99.90;;;;;;5075835;28;20429;-91
2022/12/10 05:01:58;;;;;;;10.03;6.20;;;-0.50;99.90;;;;;;5075718;28;20462;-93
2022/12/10 05:04:23;;;;;;;5.93;4.97;;;-0.40;99.90;;;;;;5094233;28;20636;-90
2022/12/10 05:06:49;;;;;;;6.70;4.57;;;-0.40;99.90;;;;;;5094131;28;20164;-90
2022/12/10 05:09:15;;;;;;;7.07;4.30;;;-0.50;99.90;;;;;;5094006;28;20196;-90
2022/12/10 05:11:44;;;;;;;8.03;5.40;;;-0.60;99.90;;;;;;5076006;28;20465;-90
2022/12/10 05:14:11;;;;;;;8.67;5.77;;;-0.60;99.90;;;;;;5075502;28;20468;-89
2022/12/10 05:16:36;;;;;;;8.30;5.57;;;-0.50;99.90;;;;;;5075961;28;20419;-92
2022/12/10 05:19:02;;;;;;;8.90;5.70;;;-0.50;99.90;;;;;;5094185;28;20399;-91
2022/12/10 05:23:27;;;;;;;12.47;6.83;;;-0.50;99.90;;;;;;5076103;28;20262;-92
2022/12/10 05:24:15;;;;;;;6.00;4.47;;;-0.50;99.90;;;;;;5094372;28;20183;-93
2022/12/10 05:26:40;;;;;;;10.50;5.07;;;-0.40;99.90;;;;;;5093986;28;20399;-92
2022/12/10 05:29:07;;;;;;;7.87;4.67;;;-0.40;99.90;;;;;;5093646;28;21145;-84
2022/12/10 05:31:32;;;;;;;5.73;3.90;;;-0.40;99.90;;;;;;5076283;28;20169;-94
2022/12/10 05:33:58;;;;;;;9.13;4.60;;;-0.50;99.90;;;;;;5094240;28;20462;-94
2022/12/10 05:36:26;;;;;;;7.30;4.20;;;-0.60;99.90;;;;;;5094159;28;20160;-94
2022/12/10 05:38:53;;;;;;;7.70;4.40;;;-0.60;99.90;;;;;;5094134;28;20248;-90
2022/12/10 05:41:24;;;;;;;8.13;5.10;;;-0.60;99.90;;;;;;5093962;28;20815;-94
2022/12/10 05:43:50;;;;;;;9.37;6.03;;;-0.60;99.90;;;;;;5094269;28;20580;-92
2022/12/10 05:46:24;;;;;;;8.67;6.00;;;-0.60;99.90;;;;;;5075725;28;20575;-92
2022/12/10 05:48:51;;;;;;;7.70;5.00;;;-0.60;99.90;;;;;;5094067;28;20831;-90
2022/12/10 05:51:19;;;;;;;7.70;4.60;;;-0.60;99.90;;;;;;5094824;28;20405;-93
2022/12/10 05:53:45;;;;;;;6.47;4.57;;;-0.50;99.90;;;;;;5097803;28;20454;-95
2022/12/10 05:56:13;;;;;;;9.00;5.27;;;-0.50;99.90;;;;;;5098152;28;20414;-91
2022/12/10 05:58:40;;;;;;;8.17;4.90;;;-0.60;99.90;;;;;;5097553;28;20166;-93
2022/12/10 06:01:12;;;;;;;6.07;3.57;;;-0.70;99.90;;;;;;5097094;28;21044;-95
2022/12/10 06:03:38;;;;;;;8.83;4.63;;;-0.70;99.90;;;;;;5080003;28;20431;-92
2022/12/10 06:06:05;;;;;;;7.20;5.53;;;-0.70;99.90;;;;;;5098050;28;20417;-92
2022/12/10 06:08:34;;;;;;;8.57;4.47;;;-0.60;99.90;;;;;;5097896;28;20402;-94
2022/12/10 06:11:03;;;;;;;5.17;4.10;;;-0.50;99.90;;;;;;5097606;28;20482;-90
2022/12/10 06:13:29;;;;;;;7.50;5.17;;;-0.60;99.90;;;;;;5097240;28;20406;-93
2022/12/10 06:15:54;;;;;;;5.37;4.07;;;-0.60;99.90;;;;;;5097318;28;20768;-91
2022/12/10 06:18:20;;;;;;;8.03;4.50;;;-0.50;99.90;;;;;;5098116;28;20206;-93
2022/12/10 06:20:46;;;;;;;9.10;4.03;;;-0.60;99.90;;;;;;5098178;28;20176;-93
2022/12/10 06:23:12;;;;;;;6.70;4.27;;;-0.60;99.90;;;;;;5097726;28;20443;-92
2022/12/10 06:25:39;;;;;;;5.80;4.13;;;-0.70;99.90;;;;;;5079558;28;20637;-91
2022/12/10 06:28:05;;;;;;;5.63;4.27;;;-0.80;99.90;;;;;;5079639;28;20234;-92
2022/12/10 06:30:30;;;;;;;6.67;4.10;;;-0.80;99.90;;;;;;5097028;28;20418;-93
2022/12/10 06:32:56;;;;;;;5.60;3.70;;;-0.80;99.90;;;;;;5096755;28;20497;-92
2022/12/10 06:35:21;;;;;;;6.90;3.53;;;-0.70;99.90;;;;;;5079100;28;20212;-92
2022/12/10 06:37:51;;;;;;;4.07;3.43;;;-0.80;99.90;;;;;;5097268;28;20524;-92
2022/12/10 06:40:17;;;;;;;10.03;4.67;;;-0.80;99.90;;;;;;5097406;28;20183;-93
2022/12/10 06:42:45;;;;;;;6.03;4.30;;;-0.70;99.90;;;;;;5097619;28;20407;-93
2022/12/10 06:45:11;;;;;;;3.10;2.60;;;-0.70;99.90;;;;;;5097370;28;20183;-92
2022/12/10 06:47:37;;;;;;;7.57;4.83;;;-0.80;99.90;;;;;;5079949;28;20422;-92
2022/12/10 06:50:03;;;;;;;9.03;4.80;;;-0.80;99.90;;;;;;5097623;28;20183;-92
2022/12/10 06:52:28;;;;;;;6.43;4.87;;;-0.80;99.90;;;;;;5098871;28;20312;-93
2022/12/10 06:54:55;;;;;;;7.27;4.27;;;-0.80;99.90;;;;;;5097855;28;20458;-93
2022/12/10 06:57:20;;;;;;;5.10;3.87;;;-0.70;99.90;;;;;;5079809;28;20174;-91
2022/12/10 06:59:46;;;;;;;9.03;4.43;;;-0.70;99.90;;;;;;5096970;28;20774;-92
2022/12/10 07:02:11;;;;;;;6.87;4.80;;;-0.80;99.90;;;;;;5097453;28;20545;-93
2022/12/10 07:04:37;;;;;;;8.17;4.10;;;-0.70;99.90;;;;;;5097254;28;20177;-93
2022/12/10 07:07:03;;;;;;;8.67;5.47;;;-0.70;99.90;;;;;;5079337;28;20188;-94
2022/12/10 07:09:28;;;;;;;8.20;4.80;;;-0.60;99.90;;;;;;5097208;28;20194;-92
2022/12/10 07:11:54;;;;;;;9.33;5.17;;;-0.60;99.90;;;;;;5096758;28;20255;-93
2022/12/10 07:14:19;;;;;;;10.97;4.50;;;-0.60;99.90;;;;;;5096234;28;20297;-94
2022/12/10 07:16:45;;;;;;;6.67;4.77;;;-0.60;99.90;;;;;;5079028;28;20267;-93
2022/12/10 07:19:14;;;;;;;6.23;3.73;;;-0.60;99.90;;;;;;5096611;28;20180;-93
2022/12/10 07:21:42;;;;;;;8.33;5.83;;;-0.60;99.90;;;;;;5078834;28;20188;-93
2022/12/10 07:24:10;;;;;;;5.77;4.37;;;-0.60;99.90;;;;;;5096455;28;20496;-92
2022/12/10 07:26:38;;;;;;;9.30;5.03;;;-0.70;99.90;;;;;;5078828;28;20426;-93
2022/12/10 07:29:08;;;;;;;6.30;4.00;;;-0.70;99.90;;;;;;5079281;28;20431;-93
2022/12/10 07:31:34;;;;;;;8.30;4.50;;;-0.60;99.90;;;;;;5096407;28;20422;-89
2022/12/10 07:34:00;;;;;;;6.90;4.40;;;-0.60;99.90;;;;;;5077718;28;21107;-91
2022/12/10 07:36:26;;;;;;;10.03;3.87;;;-0.60;99.90;;;;;;5077880;28;20446;-88
2022/12/10 07:38:56;;;;;;;4.97;3.73;;;-0.70;99.90;;;;;;5077860;28;20183;-89
2022/12/10 07:41:23;;;;;;;6.70;3.53;;;-0.70;99.90;;;;;;5095564;28;20410;-92
2022/12/10 07:43:49;;;;;;;8.93;4.60;;;-0.60;99.90;;;;;;5077440;28;20403;-89
2022/12/10 07:46:21;;;;;;;8.37;5.70;;;-0.60;99.90;;;;;;5096122;28;20440;-93
2022/12/10 07:48:47;;;;;;;7.60;4.70;;;-0.60;99.90;;;;;;5095884;28;20922;-91
2022/12/10 07:51:14;;;;;;;8.70;4.93;;;-0.60;99.90;;;;;;5077993;28;20422;-92
2022/12/10 07:53:40;;;;;;;7.60;4.87;;;-0.70;99.90;;;;;;5077596;28;20501;-92
2022/12/10 07:56:06;;;;;;;10.20;6.53;;;-0.70;99.90;;;;;;5096036;28;20418;-93
2022/12/10 07:58:32;;;;;;;8.10;4.93;;;-0.60;99.90;;;;;;5095990;28;20250;-92
2022/12/10 08:00:58;;;;;;;4.07;2.33;;;-0.60;99.90;;;;;;5095768;28;20463;-90
2022/12/10 08:03:24;;;;;;;5.07;3.33;;;-0.60;99.90;;;;;;5096891;28;20407;-93
2022/12/10 08:06:00;;;;;;;5.00;3.73;;;-0.50;99.90;;;;;;5078746;28;20176;-91
2022/12/10 08:08:26;;;;;;;6.70;4.13;;;-0.60;99.90;;;;;;5097731;28;20258;-92
2022/12/10 08:10:51;;;;;;;5.23;4.70;;;-0.60;99.90;;;;;;5115756;28;20422;-90
2022/12/10 08:13:20;;;;;;;10.43;5.83;;;-0.50;99.90;;;;;;5097447;28;20245;-86
2022/12/10 08:15:45;;;;;;;6.23;4.40;;;-0.50;99.90;;;;;;5115050;28;20234;-87
2022/12/10 08:18:11;;;;;;;7.83;3.50;;;-0.60;99.90;;;;;;5108801;28;20411;-94
2022/12/10 08:20:36;;;;;;;7.90;4.63;;;-0.60;99.90;;;;;;5099056;28;20170;-88
2022/12/10 08:23:02;;;;;;;7.93;4.40;;;-0.60;99.90;;;;;;5077352;28;20178;-87
2022/12/10 08:25:36;;;;;;;7.40;4.93;;;-0.60;99.90;;;;;;5095194;28;20164;-93
2022/12/10 08:28:02;;;;;;;7.90;4.30;;;-0.60;99.90;;;;;;5094847;28;20632;-89
2022/12/10 08:30:28;;;;;;;5.80;4.67;;;-0.50;99.90;;;;;;5094627;28;20411;-92
2022/12/10 08:32:54;;;;;;;7.70;4.90;;;-0.60;99.90;;;;;;5094504;28;20427;-94
2022/12/10 08:35:19;;;;;;;7.70;4.70;;;-0.60;99.90;;;;;;5076366;28;20869;-93
2022/12/10 08:37:45;;;;;;;7.33;4.43;;;-0.40;99.90;;;;;;5093959;28;20174;-89
2022/12/10 08:40:11;;;;;;;9.80;5.40;;;-0.50;99.90;;;;;;5075888;28;20263;-90
2022/12/10 08:42:36;;;;;;;10.13;5.97;;;-0.50;99.90;;;;;;5095735;28;20535;-86
2022/12/10 08:45:05;;;;;;;7.20;5.30;;;-0.50;99.90;;;;;;5094292;28;20415;-94
2022/12/10 08:47:30;;;;;;;9.93;5.70;;;-0.40;99.90;;;;;;5094602;28;20224;-85
2022/12/10 08:49:56;;;;;;;8.63;5.07;;;-0.40;99.90;;;;;;5076948;28;20432;-93
2022/12/10 08:52:21;;;;;;;6.10;4.90;;;-0.50;99.90;;;;;;5076407;28;20171;-86
2022/12/10 08:54:47;;;;;;;7.50;4.10;;;-0.50;99.90;;;;;;5094231;28;20303;-88
2022/12/10 08:57:12;;;;;;;5.20;4.07;;;-0.50;99.90;;;;;;5094751;28;20248;-94
2022/12/10 08:59:38;;;;;;;7.27;3.70;;;-0.50;99.90;;;;;;5076309;28;20204;-90
2022/12/10 09:02:05;;;;;;;6.67;5.73;;;-0.50;99.90;;;;;;5094878;28;20208;-89
2022/12/10 09:04:31;;;;;;;5.80;4.20;;;-0.50;99.90;;;;;;5061384;28;20240;-91
2022/12/10 09:06:59;;;;;;;6.60;4.37;;;-0.40;99.90;;;;;;5084407;28;20503;-95
2022/12/10 09:09:24;;;;;;;6.93;4.20;;;-0.40;99.90;;;;;;5079125;28;20164;-95
2022/12/10 09:11:50;;;;;;;8.53;6.27;;;-0.50;99.90;;;;;;5094406;28;20536;-94
2022/12/10 09:14:15;;;;;;;6.03;4.43;;;-0.50;99.90;;;;;;5076421;28;20676;-95
2022/12/10 09:16:41;;;;;;;8.40;5.83;;;-0.50;99.90;;;;;;5094471;28;20177;-94
2022/12/10 09:19:07;;;;;;;7.37;5.37;;;-0.60;99.90;;;;;;5094567;28;20160;-96
2022/12/10 09:21:33;;;;;;;6.13;4.13;;;-0.40;99.90;;;;;;5095927;28;20744;-95
2022/12/10 09:23:59;;;;;;;10.83;6.50;;;-0.40;99.90;;;;;;5076401;28;20526;-93
2022/12/10 09:26:25;;;;;;;6.27;4.80;;;-0.40;99.90;;;;;;5077649;28;20257;-95
2022/12/10 09:29:00;;;;;;;8.33;5.30;;;-0.40;99.90;;;;;;5079855;28;20780;-94
2022/12/10 09:31:26;;;;;;;8.07;6.97;;;-0.40;99.90;;;;;;5098745;28;20418;-91
2022/12/10 09:33:56;;;;;;;7.13;5.93;;;-0.40;99.90;;;;;;5098288;28;20457;-95
2022/12/10 09:36:22;;;;;;;10.33;7.50;;;-0.30;99.90;;;;;;5098063;28;20415;-93
2022/12/10 09:38:49;;;;;;;7.60;4.97;;;-0.30;99.90;;;;;;5098318;28;20468;-95
2022/12/10 09:41:34;;;;;;;7.60;4.90;;;-0.40;99.90;;;;;;5098342;28;20162;-93
2022/12/10 09:44:39;;;;;;;7.73;5.60;;;-0.40;99.90;;;;;;5097759;28;20754;-93
2022/12/10 09:47:10;;;;;;;7.00;4.90;;;-0.40;99.90;;;;;;5098314;28;20493;-95
2022/12/10 09:50:01;;;;;;;9.33;5.37;;;-0.40;99.90;;;;;;5097827;28;20404;-91
2022/12/10 09:52:34;;;;;;;7.77;5.50;;;-0.30;99.90;;;;;;5080061;28;20510;-94
2022/12/10 09:55:04;;;;;;;7.67;4.37;;;-0.30;99.90;;;;;;5097709;28;20519;-94
2022/12/10 09:57:33;;;;;;;8.63;5.97;;;-0.30;99.90;;;;;;5097781;28;20434;-88
2022/12/10 10:00:24;;;;;;;8.70;5.40;;;-0.20;99.90;;;;;;5097506;28;20455;-96
2022/12/10 10:02:51;;;;;;;6.80;4.77;;;-0.20;99.90;;;;;;5079170;28;20433;-94
2022/12/10 10:05:27;;;;;;;8.47;4.63;;;-0.20;99.90;;;;;;5098966;28;20449;-96
2022/12/10 10:07:59;;;;;;;8.30;6.30;;;-0.20;99.90;;;;;;5099416;28;20431;-90
2022/12/10 10:10:32;;;;;;;9.27;5.77;;;-0.20;99.90;;;;;;5099341;28;20408;-92
2022/12/10 10:13:26;;;;;;;9.80;5.93;;;-0.20;99.90;;;;;;5080975;28;20420;-95
2022/12/10 10:15:52;;;;;;;11.03;6.50;;;-0.20;99.90;;;;;;5081482;28;20470;-94
2022/12/10 10:18:23;;;;;;;14.23;6.47;;;-0.30;99.90;;;;;;5098403;28;20405;-85
2022/12/10 10:20:50;;;;;;;8.63;5.80;;;-0.30;99.90;;;;;;5097354;28;20436;-95
2022/12/10 10:23:16;;;;;;;8.90;5.97;;;-0.10;99.90;;;;;;5097645;28;20414;-95
2022/12/10 10:25:43;;;;;;;6.57;5.20;;;-0.10;99.90;;;;;;5079402;28;20782;-95
2022/12/10 10:28:14;;;;;;;8.57;6.20;;;-0.10;99.90;;;;;;5095838;28;20226;-92
2022/12/10 10:30:44;;;;;;;8.40;5.80;;;-0.20;99.90;;;;;;5097505;28;20410;-86
2022/12/10 10:33:12;;;;;;;10.20;7.10;;;-0.20;99.90;;;;;;5097523;28;20480;-89
2022/12/10 10:35:58;;;;;;;8.00;5.77;;;-0.30;99.90;;;;;;5097677;28;20839;-95
2022/12/10 10:38:26;;;;;;;9.33;7.67;;;-0.40;86.50;;;;;;5078622;28;20513;-86
2022/12/10 10:40:58;;;;;;;8.83;4.90;;;-0.30;99.90;;;;;;5096933;28;20742;-94
2022/12/10 10:43:27;;;;;;;27.40;16.87;;;-0.30;97.50;;;;;;5096603;28;20413;-95
2022/12/10 10:45:58;;;;;;;16.17;10.80;;;-0.40;41.20;;;;;;5096953;28;20419;-94
2022/12/10 10:48:25;;;;;;;14.70;9.43;;;-0.40;50.60;;;;;;5096913;28;20410;-95
2022/12/10 10:51:15;;;;;;;12.30;5.50;;;-0.10;99.90;;;;;;5096634;28;20939;-95
2022/12/10 10:53:46;;;;;;;13.03;7.13;;;-0.20;99.90;;;;;;5096551;28;20419;-94
2022/12/10 10:56:22;;;;;;;11.50;6.27;;;-0.20;99.90;;;;;;5096689;28;20446;-94
2022/12/10 10:58:56;;;;;;;11.10;6.00;;;-0.20;99.90;;;;;;5078414;28;20490;-95
2022/12/10 11:01:25;;;;;;;12.13;5.70;;;-0.20;99.90;;;;;;5097916;28;20454;-94
2022/12/10 11:03:57;;;;;;;13.37;6.37;;;-0.20;99.90;;;;;;5097106;28;20507;-95
2022/12/10 11:06:23;;;;;;;10.50;5.60;;;-0.10;99.90;;;;;;5096839;28;20395;-92
2022/12/10 11:08:57;;;;;;;10.30;6.00;;;-0.10;99.90;;;;;;5096659;28;20996;-92
2022/12/10 11:11:35;;;;;;;8.63;5.40;;;-0.10;99.90;;;;;;5078834;28;20425;-95
2022/12/10 11:14:23;;;;;;;9.37;6.20;;;-0.20;99.90;;;;;;5078551;28;20567;-89
2022/12/10 11:16:49;;;;;;;7.80;5.60;;;-0.20;99.90;;;;;;5078641;28;20416;-95
2022/12/10 11:19:23;;;;;;;9.23;5.67;;;-0.20;99.90;;;;;;5096382;28;20414;-95
2022/12/10 11:21:49;;;;;;;8.80;6.33;;;-0.30;99.90;;;;;;5095793;28;20170;-95
2022/12/10 11:24:18;;;;;;;10.83;6.60;;;-0.20;99.90;;;;;;5078153;28;20468;-95
2022/12/10 11:27:09;;;;;;;13.20;7.43;;;-0.20;99.90;;;;;;5078185;28;20431;-95
2022/12/10 11:29:54;;;;;;;8.80;5.80;;;-0.20;99.90;;;;;;5095597;28;20488;-95
2022/12/10 11:32:31;;;;;;;8.33;5.63;;;-0.10;99.90;;;;;;5095826;28;20403;-95
2022/12/10 11:35:18;;;;;;;8.30;4.83;;;-0.10;99.90;;;;;;5096112;28;20537;-92
2022/12/10 11:38:07;;;;;;;7.07;5.30;;;-0.20;97.30;;;;;;5095497;28;20416;-94
2022/12/10 11:40:41;;;;;;;9.57;6.70;;;-0.20;41.90;;;;;;5095813;28;20419;-96
2022/12/10 11:43:37;;;;;;;8.63;4.90;;;-0.20;38.10;;;;;;5096146;28;20422;-95
2022/12/10 11:46:26;;;;;;;9.13;5.80;;;-0.20;88.90;;;;;;5097517;28;20399;-95
2022/12/10 11:49:07;;;;;;;10.10;6.37;;;-0.20;23.10;;;;;;5085352;28;20772;-95
2022/12/10 11:52:04;;;;;;;6.47;4.13;;;-0.20;34.20;;;;;;5080899;28;20416;-95
2022/12/10 11:54:52;;;;;;;9.50;5.70;;;-0.10;99.90;;;;;;5078894;28;20504;-90
2022/12/10 11:57:39;;;;;;;8.93;5.97;;;-0.10;99.90;;;;;;5077887;28;20407;-96
2022/12/10 12:00:16;;;;;;;10.63;6.23;;;-0.20;99.90;;;;;;5095232;28;20410;-95
2022/12/10 12:03:23;;;;;;;9.07;6.80;;;-0.10;99.90;;;;;;5077740;28;21005;-96
2022/12/10 12:06:08;;;;;;;9.80;5.93;;;-0.10;99.90;;;;;;5095689;28;20428;-95
2022/12/10 12:08:58;;;;;;;16.90;7.50;;;-0.10;99.90;;;;;;5077525;28;20449;-94
2022/12/10 12:11:52;;;;;;;12.10;7.13;;;-0.10;99.90;;;;;;5077486;28;20506;-94
2022/12/10 12:15:18;;;;;;;9.63;6.00;;;-0.10;99.90;;;;;;5095887;28;20452;-95
2022/12/10 12:17:51;;;;;;;9.40;5.40;;;-0.20;99.90;;;;;;5060021;28;20934;-94
2022/12/10 12:20:20;;;;;;;12.57;7.10;;;-0.20;71.30;;;;;;5095796;28;20415;-92
2022/12/10 12:23:16;;;;;;;12.10;6.10;;;-0.20;34.00;;;;;;5095714;28;20410;-94
2022/12/10 12:25:51;;;;;;;13.63;7.43;;;-0.40;17.40;;;;;;5091019;28;20453;-93
2022/12/10 12:28:24;;;;;;;9.23;6.43;;;-0.20;99.90;;;;;;5077138;28;20411;-94
2022/12/10 12:30:58;;;;;;;11.97;6.70;;;-0.20;72.20;;;;;;5095571;28;20426;-94
2022/12/10 12:33:40;;;;;;;11.37;6.30;;;-0.20;43.10;;;;;;5096595;28;20414;-94
2022/12/10 12:36:15;;;;;;;11.40;6.47;;;-0.10;93.80;;;;;;5079219;28;20439;-94
2022/12/10 12:38:55;;;;;;;12.37;6.70;;;-0.10;99.90;;;;;;5095670;28;20416;-93
2022/12/10 12:41:36;;;;;;;10.77;6.60;;;-0.20;58.50;;;;;;5095597;28;20406;-94
2022/12/10 12:44:32;;;;;;;8.50;4.70;;;-0.20;69.00;;;;;;5095579;28;20418;-94
2022/12/10 12:47:10;;;;;;;8.23;5.27;;;-0.20;1.00;;;;;;5095251;28;20423;-94
2022/12/10 12:49:40;;;;;;;9.40;6.80;;;-0.30;1.00;;;;;;5095354;28;20398;-93
2022/12/10 12:52:37;;;;;;;9.00;5.73;;;-0.40;1.00;;;;;;5095261;28;20501;-95
2022/12/10 12:55:17;;;;;;;12.70;8.07;;;-0.30;41.00;;;;;;5077362;28;21065;-94
2022/12/10 12:57:51;;;;;;;8.77;5.10;;;-0.20;71.20;;;;;;5077063;28;20424;-94
2022/12/10 13:00:21;;;;;;;11.90;6.80;;;-0.30;1.00;;;;;;5095225;28;20393;-94
2022/12/10 13:03:29;;;;;;;7.73;5.10;;;-0.30;80.50;;;;;;5078221;28;20429;-95
2022/12/10 13:05:55;;;;;;;9.37;5.93;;;-0.30;92.90;;;;;;5094599;28;20399;-94
2022/12/10 13:08:20;;;;;;;11.90;7.27;;;-0.30;99.90;;;;;;5094778;28;20412;-94
2022/12/10 13:10:51;;;;;;;13.03;6.83;;;-0.20;99.90;;;;;;5094799;28;20221;-95
2022/12/10 13:13:28;;;;;;;10.77;6.97;;;-0.20;99.90;;;;;;5094613;28;20180;-94